AAL2589 CYYZ-KMIA
Flight info
| Callsign | AAL2589 |
|---|---|
| Flight time | 2h 35m |
| Altitude | 38000 |
| Route | BETES3 AIRRA Q103 SLOJO DCT EFFAY Q83 JEVED Q97 DEBRL CSTAL3 |
| Aircraft | B738/M-SDE2E3FGHIRWXY/LB1 |
Departure
| Time | 2026-05-05 23:58 |
|---|---|
| Airport | Toronto Pearson International Airport (CYYZ) |
Arrival
| Time | 2026-05-06 02:34 |
|---|---|
| Airport | Miami International Airport (KMIA) |
| Time | Latitude | Longitude | Altitude | Speed | Heading |
|---|---|---|---|---|---|
| 2026-05-05 23:00 | 43.68627 | -79.62279 | 626 ft | 0 kts | 105° |
| 2026-05-05 23:42 | 43.68629 | -79.62290 | 560 ft | 4 kts | 104° |
| 2026-05-05 23:42 | 43.68636 | -79.62325 | 570 ft | 4 kts | 115° |
| 2026-05-05 23:42 | 43.68647 | -79.62352 | 570 ft | 4 kts | 130° |
| 2026-05-05 23:43 | 43.68667 | -79.62373 | 568 ft | 4 kts | 163° |
| 2026-05-05 23:43 | 43.68694 | -79.62378 | 565 ft | 4 kts | 181° |
| 2026-05-05 23:43 | 43.68704 | -79.62378 | 565 ft | 1 kts | 180° |
| 2026-05-05 23:46 | 43.68703 | -79.62378 | 565 ft | 1 kts | 180° |
| 2026-05-05 23:47 | 43.68661 | -79.62389 | 570 ft | 9 kts | 205° |
| 2026-05-05 23:47 | 43.68615 | -79.62458 | 569 ft | 11 kts | 234° |
| 2026-05-05 23:47 | 43.68565 | -79.62545 | 561 ft | 12 kts | 226° |
| 2026-05-05 23:47 | 43.68508 | -79.62639 | 561 ft | 13 kts | 238° |
| 2026-05-05 23:48 | 43.68460 | -79.62716 | 564 ft | 9 kts | 223° |
| 2026-05-05 23:48 | 43.68412 | -79.62767 | 562 ft | 9 kts | 191° |
| 2026-05-05 23:48 | 43.68360 | -79.62735 | 570 ft | 8 kts | 139° |
| 2026-05-05 23:48 | 43.68317 | -79.62681 | 564 ft | 8 kts | 136° |
| 2026-05-05 23:49 | 43.68277 | -79.62626 | 564 ft | 8 kts | 136° |
| 2026-05-05 23:49 | 43.68235 | -79.62573 | 563 ft | 8 kts | 137° |
| 2026-05-05 23:49 | 43.68192 | -79.62520 | 565 ft | 8 kts | 138° |
| 2026-05-05 23:49 | 43.68150 | -79.62468 | 563 ft | 8 kts | 140° |
| 2026-05-05 23:50 | 43.68108 | -79.62421 | 570 ft | 8 kts | 142° |
| 2026-05-05 23:50 | 43.68066 | -79.62378 | 562 ft | 7 kts | 145° |
| 2026-05-05 23:50 | 43.68027 | -79.62327 | 562 ft | 9 kts | 133° |
| 2026-05-05 23:50 | 43.67954 | -79.62224 | 562 ft | 20 kts | 135° |
| 2026-05-05 23:51 | 43.67839 | -79.62132 | 569 ft | 16 kts | 143° |
| 2026-05-05 23:51 | 43.67758 | -79.62029 | 565 ft | 15 kts | 138° |
| 2026-05-05 23:51 | 43.67686 | -79.61930 | 565 ft | 14 kts | 136° |
| 2026-05-05 23:51 | 43.67616 | -79.61838 | 567 ft | 14 kts | 137° |
| 2026-05-05 23:52 | 43.67549 | -79.61750 | 566 ft | 13 kts | 133° |
| 2026-05-05 23:52 | 43.67484 | -79.61666 | 565 ft | 13 kts | 139° |
| 2026-05-05 23:52 | 43.67420 | -79.61586 | 565 ft | 12 kts | 136° |
| 2026-05-05 23:52 | 43.67354 | -79.61499 | 568 ft | 15 kts | 137° |
| 2026-05-05 23:53 | 43.67261 | -79.61380 | 563 ft | 20 kts | 136° |
| 2026-05-05 23:53 | 43.67230 | -79.61271 | 562 ft | 13 kts | 68° |
| 2026-05-05 23:53 | 43.67285 | -79.61168 | 561 ft | 13 kts | 54° |
| 2026-05-05 23:53 | 43.67340 | -79.61068 | 559 ft | 13 kts | 50° |
| 2026-05-05 23:54 | 43.67393 | -79.60970 | 564 ft | 13 kts | 55° |
| 2026-05-05 23:54 | 43.67445 | -79.60875 | 565 ft | 12 kts | 52° |
| 2026-05-05 23:54 | 43.67500 | -79.60787 | 559 ft | 12 kts | 46° |
| 2026-05-05 23:54 | 43.67556 | -79.60705 | 560 ft | 12 kts | 47° |
| 2026-05-05 23:55 | 43.67612 | -79.60627 | 561 ft | 11 kts | 43° |
| 2026-05-05 23:55 | 43.67665 | -79.60549 | 565 ft | 11 kts | 48° |
| 2026-05-05 23:55 | 43.67717 | -79.60472 | 565 ft | 11 kts | 45° |
| 2026-05-05 23:55 | 43.67769 | -79.60397 | 560 ft | 12 kts | 46° |
| 2026-05-05 23:56 | 43.67827 | -79.60311 | 562 ft | 13 kts | 47° |
| 2026-05-05 23:56 | 43.67889 | -79.60222 | 564 ft | 13 kts | 45° |
| 2026-05-05 23:56 | 43.67950 | -79.60136 | 566 ft | 13 kts | 46° |
| 2026-05-05 23:56 | 43.68011 | -79.60046 | 561 ft | 13 kts | 47° |
| 2026-05-05 23:57 | 43.68069 | -79.59956 | 566 ft | 12 kts | 53° |
| 2026-05-05 23:57 | 43.68048 | -79.59852 | 560 ft | 13 kts | 136° |
| 2026-05-05 23:57 | 43.67981 | -79.59765 | 564 ft | 13 kts | 134° |
| 2026-05-05 23:57 | 43.67905 | -79.59729 | 566 ft | 13 kts | 212° |
| 2026-05-05 23:58 | 43.67837 | -79.59824 | 561 ft | 20 kts | 226° |
| 2026-05-05 23:58 | 43.67560 | -79.60231 | 569 ft | 96 kts | 227° |
| 2026-05-05 23:58 | 43.66948 | -79.61123 | 649 ft | 152 kts | 227° |
| 2026-05-05 23:58 | 43.66137 | -79.62153 | 1386 ft | 161 kts | 227° |
| 2026-05-05 23:59 | 43.65374 | -79.63271 | 2324 ft | 160 kts | 233° |
| 2026-05-05 23:59 | 43.64575 | -79.64549 | 2739 ft | 195 kts | 232° |
| 2026-05-05 23:59 | 43.63661 | -79.66005 | 3341 ft | 203 kts | 232° |
| 2026-05-05 23:59 | 43.62736 | -79.67491 | 4143 ft | 207 kts | 232° |
| 2026-05-06 00:00 | 43.61718 | -79.68891 | 5041 ft | 208 kts | 213° |
| 2026-05-06 00:00 | 43.60291 | -79.69424 | 5894 ft | 224 kts | 196° |
| 2026-05-06 00:00 | 43.58685 | -79.69734 | 6293 ft | 249 kts | 195° |
| 2026-05-06 00:00 | 43.56933 | -79.70054 | 7204 ft | 251 kts | 196° |
| 2026-05-06 00:01 | 43.55235 | -79.70365 | 8247 ft | 247 kts | 195° |
| 2026-05-06 00:01 | 43.53534 | -79.70687 | 9267 ft | 248 kts | 196° |
| 2026-05-06 00:01 | 43.51815 | -79.71025 | 10131 ft | 251 kts | 197° |
| 2026-05-06 00:01 | 43.50073 | -79.71375 | 10893 ft | 259 kts | 197° |
| 2026-05-06 00:02 | 43.48203 | -79.71766 | 11149 ft | 284 kts | 197° |
| 2026-05-06 00:02 | 43.46202 | -79.72182 | 11764 ft | 295 kts | 197° |
| 2026-05-06 00:02 | 43.44152 | -79.72599 | 12615 ft | 299 kts | 197° |
| 2026-05-06 00:02 | 43.42086 | -79.73019 | 13481 ft | 302 kts | 197° |
| 2026-05-06 00:03 | 43.39993 | -79.73446 | 14239 ft | 306 kts | 197° |
| 2026-05-06 00:03 | 43.37902 | -79.73876 | 14966 ft | 310 kts | 197° |
| 2026-05-06 00:03 | 43.35756 | -79.74318 | 15659 ft | 314 kts | 197° |
| 2026-05-06 00:03 | 43.33575 | -79.74768 | 16341 ft | 320 kts | 197° |
| 2026-05-06 00:04 | 43.31363 | -79.75223 | 17088 ft | 323 kts | 197° |
| 2026-05-06 00:04 | 43.29128 | -79.75684 | 17829 ft | 327 kts | 197° |
| 2026-05-06 00:04 | 43.26864 | -79.76151 | 18489 ft | 331 kts | 197° |
| 2026-05-06 00:04 | 43.24588 | -79.76701 | 19122 ft | 332 kts | 200° |
| 2026-05-06 00:05 | 43.20099 | -79.78213 | 20376 ft | 338 kts | 202° |
| 2026-05-06 00:05 | 43.17815 | -79.79009 | 20964 ft | 341 kts | 202° |
| 2026-05-06 00:05 | 43.15491 | -79.79817 | 21419 ft | 349 kts | 202° |
| 2026-05-06 00:06 | 43.13120 | -79.80633 | 21985 ft | 352 kts | 202° |
| 2026-05-06 00:06 | 43.10737 | -79.81445 | 22620 ft | 354 kts | 204° |
| 2026-05-06 00:06 | 43.08598 | -79.82177 | 23147 ft | 357 kts | 202° |
| 2026-05-06 00:06 | 43.06659 | -79.82833 | 23550 ft | 360 kts | 202° |
| 2026-05-06 00:07 | 43.04221 | -79.83656 | 24021 ft | 363 kts | 202° |
| 2026-05-06 00:07 | 43.01786 | -79.84476 | 24494 ft | 366 kts | 202° |
| 2026-05-06 00:07 | 42.99310 | -79.85309 | 24973 ft | 368 kts | 203° |
| 2026-05-06 00:07 | 42.96811 | -79.86150 | 25397 ft | 372 kts | 203° |
| 2026-05-06 00:08 | 42.94279 | -79.87004 | 25758 ft | 377 kts | 203° |
| 2026-05-06 00:08 | 42.91718 | -79.87865 | 26204 ft | 380 kts | 203° |
| 2026-05-06 00:08 | 42.89143 | -79.88729 | 26685 ft | 382 kts | 204° |
| 2026-05-06 00:08 | 42.86554 | -79.89597 | 27137 ft | 384 kts | 204° |
| 2026-05-06 00:09 | 42.83948 | -79.90472 | 27556 ft | 387 kts | 204° |
| 2026-05-06 00:09 | 42.81334 | -79.91271 | 27957 ft | 393 kts | 202° |
| 2026-05-06 00:09 | 42.78636 | -79.91983 | 28367 ft | 397 kts | 201° |
| 2026-05-06 00:09 | 42.75914 | -79.92661 | 28715 ft | 400 kts | 200° |
| 2026-05-06 00:10 | 42.73160 | -79.93338 | 29077 ft | 404 kts | 201° |
| 2026-05-06 00:10 | 42.70386 | -79.94024 | 29457 ft | 406 kts | 201° |
| 2026-05-06 00:10 | 42.67598 | -79.94720 | 29832 ft | 409 kts | 201° |
| 2026-05-06 00:10 | 42.64795 | -79.95425 | 30159 ft | 410 kts | 201° |
| 2026-05-06 00:11 | 42.61986 | -79.96135 | 30530 ft | 411 kts | 201° |
| 2026-05-06 00:11 | 42.59216 | -79.96835 | 30919 ft | 410 kts | 201° |
| 2026-05-06 00:11 | 42.56413 | -79.97546 | 31254 ft | 410 kts | 201° |
| 2026-05-06 00:11 | 42.53607 | -79.98258 | 31575 ft | 411 kts | 201° |
| 2026-05-06 00:12 | 42.50797 | -79.98971 | 31961 ft | 410 kts | 201° |
| 2026-05-06 00:12 | 42.48001 | -79.99677 | 32435 ft | 407 kts | 201° |
| 2026-05-06 00:12 | 42.45227 | -80.00377 | 32908 ft | 404 kts | 201° |
| 2026-05-06 00:12 | 42.42469 | -80.01073 | 33331 ft | 402 kts | 201° |
| 2026-05-06 00:13 | 42.39721 | -80.01769 | 33709 ft | 401 kts | 202° |
| 2026-05-06 00:13 | 42.36987 | -80.02461 | 34057 ft | 400 kts | 202° |
| 2026-05-06 00:13 | 42.34250 | -80.03154 | 34317 ft | 401 kts | 202° |
| 2026-05-06 00:13 | 42.31538 | -80.03840 | 34533 ft | 403 kts | 202° |
| 2026-05-06 00:14 | 42.28782 | -80.04536 | 34792 ft | 403 kts | 202° |
| 2026-05-06 00:14 | 42.26023 | -80.05224 | 35081 ft | 404 kts | 201° |
| 2026-05-06 00:14 | 42.23191 | -80.05629 | 35320 ft | 417 kts | 193° |
| 2026-05-06 00:14 | 42.20276 | -80.05664 | 35552 ft | 420 kts | 192° |
| 2026-05-06 00:15 | 42.17349 | -80.05662 | 35793 ft | 421 kts | 191° |
| 2026-05-06 00:15 | 42.11416 | -80.05659 | 35974 ft | 430 kts | 191° |
| 2026-05-06 00:15 | 42.08424 | -80.05666 | 36157 ft | 432 kts | 191° |
| 2026-05-06 00:16 | 42.05453 | -80.05679 | 36353 ft | 433 kts | 191° |
| 2026-05-06 00:16 | 42.02442 | -80.05695 | 36638 ft | 432 kts | 192° |
| 2026-05-06 00:16 | 41.99441 | -80.05712 | 36940 ft | 431 kts | 192° |
| 2026-05-06 00:16 | 41.96447 | -80.05732 | 37149 ft | 431 kts | 192° |
| 2026-05-06 00:17 | 41.93431 | -80.05759 | 37160 ft | 436 kts | 192° |
| 2026-05-06 00:17 | 41.90382 | -80.05789 | 37273 ft | 439 kts | 192° |
| 2026-05-06 00:17 | 41.87331 | -80.05813 | 37555 ft | 438 kts | 192° |
| 2026-05-06 00:17 | 41.84287 | -80.05834 | 37817 ft | 437 kts | 192° |
| 2026-05-06 00:18 | 41.81229 | -80.05859 | 37809 ft | 442 kts | 192° |
| 2026-05-06 00:18 | 41.75126 | -80.05906 | 37798 ft | 441 kts | 192° |
| 2026-05-06 00:19 | 41.69006 | -80.05948 | 37830 ft | 439 kts | 192° |
| 2026-05-06 00:19 | 41.62891 | -80.05995 | 37836 ft | 439 kts | 192° |
| 2026-05-06 00:20 | 41.56777 | -80.06044 | 37836 ft | 439 kts | 192° |
| 2026-05-06 00:20 | 41.50710 | -80.06091 | 37833 ft | 439 kts | 192° |
| 2026-05-06 00:21 | 41.44582 | -80.06140 | 37846 ft | 441 kts | 191° |
| 2026-05-06 00:21 | 41.38430 | -80.06188 | 37852 ft | 443 kts | 191° |
| 2026-05-06 00:22 | 41.32252 | -80.06236 | 37831 ft | 445 kts | 191° |
| 2026-05-06 00:22 | 41.26056 | -80.06283 | 37839 ft | 447 kts | 191° |
| 2026-05-06 00:23 | 41.19868 | -80.06330 | 37852 ft | 448 kts | 191° |
| 2026-05-06 00:23 | 41.13620 | -80.06377 | 37848 ft | 450 kts | 191° |
| 2026-05-06 00:24 | 41.07359 | -80.06424 | 37850 ft | 450 kts | 191° |
| 2026-05-06 00:24 | 41.01119 | -80.06469 | 37850 ft | 452 kts | 191° |
| 2026-05-06 00:25 | 40.94825 | -80.06514 | 37860 ft | 453 kts | 191° |
| 2026-05-06 00:25 | 40.88524 | -80.06558 | 37845 ft | 454 kts | 191° |
| 2026-05-06 00:26 | 40.82198 | -80.06603 | 37859 ft | 455 kts | 191° |
| 2026-05-06 00:26 | 40.75847 | -80.06649 | 37873 ft | 457 kts | 191° |
| 2026-05-06 00:27 | 40.69528 | -80.06692 | 37833 ft | 457 kts | 191° |
| 2026-05-06 00:27 | 40.63178 | -80.06733 | 37859 ft | 456 kts | 191° |
| 2026-05-06 00:28 | 40.56842 | -80.06777 | 37864 ft | 455 kts | 191° |
| 2026-05-06 00:28 | 40.50508 | -80.06823 | 37852 ft | 455 kts | 191° |
| 2026-05-06 00:29 | 40.44174 | -80.06867 | 37857 ft | 454 kts | 191° |
| 2026-05-06 00:29 | 40.37882 | -80.06912 | 37860 ft | 456 kts | 191° |
| 2026-05-06 00:30 | 40.31531 | -80.06958 | 37854 ft | 457 kts | 191° |
| 2026-05-06 00:30 | 40.25162 | -80.07002 | 37866 ft | 458 kts | 191° |
| 2026-05-06 00:31 | 40.18820 | -80.07046 | 37882 ft | 459 kts | 191° |
| 2026-05-06 00:31 | 40.12419 | -80.07090 | 37882 ft | 460 kts | 191° |
| 2026-05-06 00:32 | 40.06025 | -80.07133 | 37841 ft | 459 kts | 191° |
| 2026-05-06 00:32 | 39.99649 | -80.07174 | 37849 ft | 457 kts | 191° |
| 2026-05-06 00:33 | 39.93331 | -80.07218 | 37855 ft | 456 kts | 191° |
| 2026-05-06 00:33 | 39.86985 | -80.07262 | 37869 ft | 456 kts | 191° |
| 2026-05-06 00:34 | 39.80644 | -80.07306 | 37845 ft | 455 kts | 191° |
| 2026-05-06 00:34 | 39.74311 | -80.07351 | 37878 ft | 456 kts | 191° |
| 2026-05-06 00:35 | 39.67992 | -80.07395 | 37884 ft | 457 kts | 191° |
| 2026-05-06 00:35 | 39.61618 | -80.07438 | 37906 ft | 459 kts | 191° |
| 2026-05-06 00:36 | 39.55226 | -80.07482 | 37886 ft | 461 kts | 190° |
| 2026-05-06 00:36 | 39.48802 | -80.07540 | 37854 ft | 462 kts | 191° |
| 2026-05-06 00:37 | 39.42363 | -80.07642 | 37868 ft | 463 kts | 191° |
| 2026-05-06 00:37 | 39.35906 | -80.07747 | 37829 ft | 464 kts | 191° |
| 2026-05-06 00:38 | 39.29448 | -80.07845 | 37865 ft | 464 kts | 190° |
| 2026-05-06 00:38 | 39.23032 | -80.07941 | 37887 ft | 465 kts | 191° |
| 2026-05-06 00:39 | 39.16555 | -80.08037 | 37877 ft | 466 kts | 190° |
| 2026-05-06 00:39 | 39.10081 | -80.08133 | 37888 ft | 465 kts | 190° |
| 2026-05-06 00:40 | 39.03610 | -80.08229 | 37901 ft | 465 kts | 190° |
| 2026-05-06 00:40 | 38.97144 | -80.08325 | 37913 ft | 465 kts | 190° |
| 2026-05-06 00:41 | 38.90785 | -80.08778 | 37898 ft | 450 kts | 201° |
| 2026-05-06 00:41 | 38.84826 | -80.10840 | 37927 ft | 442 kts | 206° |
| 2026-05-06 00:42 | 38.78896 | -80.13015 | 37929 ft | 444 kts | 206° |
| 2026-05-06 00:42 | 38.72932 | -80.15119 | 37935 ft | 445 kts | 205° |
| 2026-05-06 00:43 | 38.66986 | -80.17191 | 37916 ft | 446 kts | 205° |
| 2026-05-06 00:43 | 38.60990 | -80.19276 | 37931 ft | 447 kts | 205° |
| 2026-05-06 00:44 | 38.54978 | -80.21363 | 37937 ft | 448 kts | 205° |
| 2026-05-06 00:44 | 38.48946 | -80.23454 | 37923 ft | 452 kts | 205° |
| 2026-05-06 00:45 | 38.43907 | -80.25197 | 37938 ft | 451 kts | 205° |
| 2026-05-06 00:45 | 38.37842 | -80.27291 | 37946 ft | 452 kts | 205° |
| 2026-05-06 00:46 | 38.30789 | -80.29724 | 37947 ft | 452 kts | 205° |
| 2026-05-06 00:46 | 38.25705 | -80.31482 | 37920 ft | 452 kts | 205° |
| 2026-05-06 00:47 | 38.19683 | -80.33572 | 37933 ft | 451 kts | 205° |
| 2026-05-06 00:47 | 38.13628 | -80.35671 | 37952 ft | 451 kts | 206° |
| 2026-05-06 00:48 | 38.07555 | -80.37764 | 37951 ft | 451 kts | 205° |
| 2026-05-06 00:48 | 38.01489 | -80.39839 | 37947 ft | 451 kts | 205° |
| 2026-05-06 00:49 | 37.95424 | -80.41916 | 37976 ft | 451 kts | 205° |
| 2026-05-06 00:49 | 37.89412 | -80.43972 | 37986 ft | 451 kts | 205° |
| 2026-05-06 00:50 | 37.83353 | -80.46040 | 38000 ft | 451 kts | 205° |
| 2026-05-06 00:50 | 37.77293 | -80.48108 | 37984 ft | 450 kts | 205° |
| 2026-05-06 00:51 | 37.71238 | -80.50175 | 37969 ft | 451 kts | 205° |
| 2026-05-06 00:51 | 37.65182 | -80.52240 | 37969 ft | 451 kts | 205° |
| 2026-05-06 00:52 | 37.59120 | -80.54304 | 37959 ft | 451 kts | 206° |
| 2026-05-06 00:52 | 37.53100 | -80.56350 | 37942 ft | 452 kts | 206° |
| 2026-05-06 00:53 | 37.47021 | -80.58413 | 37941 ft | 453 kts | 206° |
| 2026-05-06 00:53 | 37.40923 | -80.60478 | 37947 ft | 454 kts | 206° |
| 2026-05-06 00:54 | 37.34815 | -80.62543 | 37937 ft | 455 kts | 206° |
| 2026-05-06 00:54 | 37.28741 | -80.64592 | 37947 ft | 455 kts | 206° |
| 2026-05-06 00:55 | 37.22628 | -80.66652 | 38017 ft | 456 kts | 206° |
| 2026-05-06 00:55 | 37.16495 | -80.68716 | 38003 ft | 456 kts | 206° |
| 2026-05-06 00:56 | 37.10356 | -80.70756 | 37984 ft | 459 kts | 203° |
| 2026-05-06 00:56 | 37.07156 | -80.71364 | 38005 ft | 472 kts | 193° |
| 2026-05-06 00:56 | 37.03879 | -80.71398 | 38021 ft | 479 kts | 189° |
| 2026-05-06 00:57 | 36.97190 | -80.71159 | 38001 ft | 481 kts | 188° |
| 2026-05-06 00:57 | 36.90487 | -80.70902 | 38015 ft | 482 kts | 188° |
| 2026-05-06 00:58 | 36.83785 | -80.70705 | 38020 ft | 481 kts | 188° |
| 2026-05-06 00:58 | 36.77141 | -80.70546 | 38033 ft | 481 kts | 188° |
| 2026-05-06 00:59 | 36.70440 | -80.70394 | 38040 ft | 482 kts | 188° |
| 2026-05-06 00:59 | 36.63724 | -80.70241 | 38023 ft | 483 kts | 188° |
| 2026-05-06 01:00 | 36.57013 | -80.70083 | 38012 ft | 482 kts | 188° |
| 2026-05-06 01:00 | 36.50346 | -80.69930 | 37994 ft | 483 kts | 188° |
| 2026-05-06 01:01 | 36.43621 | -80.69774 | 37989 ft | 485 kts | 188° |
| 2026-05-06 01:01 | 36.36865 | -80.69617 | 37968 ft | 486 kts | 188° |
| 2026-05-06 01:02 | 36.30091 | -80.69459 | 37993 ft | 487 kts | 188° |
| 2026-05-06 01:02 | 36.23355 | -80.69303 | 38000 ft | 488 kts | 188° |
| 2026-05-06 01:03 | 36.16549 | -80.69146 | 38001 ft | 490 kts | 188° |
| 2026-05-06 01:03 | 36.09735 | -80.68987 | 37975 ft | 489 kts | 188° |
| 2026-05-06 01:04 | 36.02927 | -80.68830 | 37981 ft | 489 kts | 188° |
| 2026-05-06 01:04 | 35.96119 | -80.68673 | 38002 ft | 489 kts | 188° |
| 2026-05-06 01:05 | 35.89357 | -80.68518 | 37994 ft | 490 kts | 188° |
| 2026-05-06 01:05 | 35.82548 | -80.68361 | 38025 ft | 489 kts | 188° |
| 2026-05-06 01:06 | 35.75746 | -80.68206 | 38030 ft | 489 kts | 188° |
| 2026-05-06 01:06 | 35.68944 | -80.68051 | 38029 ft | 489 kts | 188° |
| 2026-05-06 01:07 | 35.62152 | -80.67896 | 38051 ft | 489 kts | 188° |
| 2026-05-06 01:07 | 35.55395 | -80.67742 | 38056 ft | 489 kts | 188° |
| 2026-05-06 01:08 | 35.48591 | -80.67588 | 38066 ft | 489 kts | 188° |
| 2026-05-06 01:08 | 35.41790 | -80.67434 | 38064 ft | 489 kts | 188° |
| 2026-05-06 01:09 | 35.35000 | -80.67279 | 38059 ft | 488 kts | 189° |
| 2026-05-06 01:09 | 35.28257 | -80.67127 | 38063 ft | 488 kts | 189° |
| 2026-05-06 01:10 | 35.21464 | -80.66974 | 38063 ft | 488 kts | 189° |
| 2026-05-06 01:10 | 35.14664 | -80.66822 | 38058 ft | 489 kts | 189° |
| 2026-05-06 01:11 | 35.07858 | -80.66668 | 38050 ft | 489 kts | 188° |
| 2026-05-06 01:11 | 35.01100 | -80.66517 | 38063 ft | 490 kts | 188° |
| 2026-05-06 01:12 | 34.94274 | -80.66364 | 38057 ft | 491 kts | 188° |
| 2026-05-06 01:12 | 34.87432 | -80.66211 | 38025 ft | 492 kts | 188° |
| 2026-05-06 01:13 | 34.80582 | -80.66057 | 38046 ft | 492 kts | 188° |
| 2026-05-06 01:13 | 34.73769 | -80.65905 | 38048 ft | 493 kts | 188° |
| 2026-05-06 01:14 | 34.63437 | -80.65286 | 38038 ft | 507 kts | 176° |
| 2026-05-06 01:14 | 34.56609 | -80.62851 | 38048 ft | 514 kts | 168° |
| 2026-05-06 01:15 | 34.49851 | -80.60150 | 38061 ft | 514 kts | 168° |
| 2026-05-06 01:15 | 34.43043 | -80.57540 | 38052 ft | 513 kts | 169° |
| 2026-05-06 01:16 | 34.36219 | -80.54979 | 38028 ft | 513 kts | 169° |
| 2026-05-06 01:16 | 34.29376 | -80.52578 | 38043 ft | 506 kts | 177° |
| 2026-05-06 01:17 | 34.25927 | -80.52126 | 38065 ft | 494 kts | 187° |
| 2026-05-06 01:17 | 34.22526 | -80.52252 | 38054 ft | 484 kts | 196° |
| 2026-05-06 01:17 | 34.19299 | -80.52915 | 38049 ft | 471 kts | 205° |
| 2026-05-06 01:17 | 34.16133 | -80.53896 | 38062 ft | 470 kts | 206° |
| 2026-05-06 01:18 | 34.09799 | -80.55880 | 38007 ft | 471 kts | 206° |
| 2026-05-06 01:18 | 34.03447 | -80.57814 | 38038 ft | 471 kts | 205° |
| 2026-05-06 01:19 | 33.97077 | -80.59716 | 38050 ft | 473 kts | 205° |
| 2026-05-06 01:19 | 33.90726 | -80.61600 | 38045 ft | 474 kts | 205° |
| 2026-05-06 01:20 | 33.84323 | -80.63499 | 38008 ft | 474 kts | 205° |
| 2026-05-06 01:20 | 33.77922 | -80.65396 | 38028 ft | 474 kts | 205° |
| 2026-05-06 01:21 | 33.71524 | -80.67290 | 38063 ft | 474 kts | 205° |
| 2026-05-06 01:21 | 33.65156 | -80.69172 | 38074 ft | 474 kts | 205° |
| 2026-05-06 01:22 | 33.58744 | -80.71064 | 38034 ft | 474 kts | 205° |
| 2026-05-06 01:22 | 33.52353 | -80.72947 | 38055 ft | 472 kts | 205° |
| 2026-05-06 01:23 | 33.45985 | -80.74821 | 38060 ft | 471 kts | 205° |
| 2026-05-06 01:23 | 33.39669 | -80.76678 | 38066 ft | 470 kts | 205° |
| 2026-05-06 01:24 | 33.33323 | -80.78541 | 38032 ft | 469 kts | 205° |
| 2026-05-06 01:24 | 33.27004 | -80.80394 | 38060 ft | 467 kts | 205° |
| 2026-05-06 01:25 | 33.20702 | -80.82240 | 38078 ft | 466 kts | 205° |
| 2026-05-06 01:25 | 33.14463 | -80.84065 | 38075 ft | 465 kts | 205° |
| 2026-05-06 01:26 | 33.08185 | -80.85898 | 38080 ft | 464 kts | 205° |
| 2026-05-06 01:26 | 33.01912 | -80.87728 | 38088 ft | 464 kts | 205° |
| 2026-05-06 01:27 | 32.95641 | -80.89554 | 38083 ft | 464 kts | 205° |
| 2026-05-06 01:27 | 32.89373 | -80.91377 | 38070 ft | 464 kts | 205° |
| 2026-05-06 01:28 | 32.83139 | -80.93186 | 38083 ft | 464 kts | 205° |
| 2026-05-06 01:28 | 32.76862 | -80.95005 | 38079 ft | 464 kts | 205° |
| 2026-05-06 01:29 | 32.70582 | -80.96824 | 38088 ft | 465 kts | 205° |
| 2026-05-06 01:29 | 32.64304 | -80.98639 | 38091 ft | 465 kts | 205° |
| 2026-05-06 01:30 | 32.58010 | -81.00455 | 38096 ft | 466 kts | 205° |
| 2026-05-06 01:30 | 32.51676 | -81.02022 | 38086 ft | 478 kts | 194° |
| 2026-05-06 01:31 | 32.44937 | -81.02160 | 38093 ft | 486 kts | 189° |
| 2026-05-06 01:31 | 32.38167 | -81.02149 | 38093 ft | 486 kts | 190° |
| 2026-05-06 01:32 | 32.31410 | -81.02244 | 38085 ft | 485 kts | 190° |
| 2026-05-06 01:32 | 32.24715 | -81.02363 | 38083 ft | 484 kts | 191° |
| 2026-05-06 01:33 | 32.17975 | -81.02482 | 38079 ft | 484 kts | 191° |
| 2026-05-06 01:33 | 32.11245 | -81.02601 | 38059 ft | 483 kts | 191° |
| 2026-05-06 01:34 | 32.04523 | -81.02719 | 38053 ft | 483 kts | 191° |
| 2026-05-06 01:34 | 31.97862 | -81.02842 | 38051 ft | 480 kts | 191° |
| 2026-05-06 01:35 | 31.91195 | -81.03034 | 38054 ft | 479 kts | 191° |
| 2026-05-06 01:35 | 31.84539 | -81.03242 | 38061 ft | 478 kts | 191° |
| 2026-05-06 01:36 | 31.77893 | -81.03441 | 38063 ft | 477 kts | 191° |
| 2026-05-06 01:36 | 31.71259 | -81.03633 | 38070 ft | 476 kts | 191° |
| 2026-05-06 01:37 | 31.64681 | -81.03824 | 38072 ft | 476 kts | 191° |
| 2026-05-06 01:37 | 31.58070 | -81.04017 | 38074 ft | 475 kts | 192° |
| 2026-05-06 01:38 | 31.51484 | -81.04389 | 38069 ft | 473 kts | 193° |
| 2026-05-06 01:38 | 31.44915 | -81.04845 | 38064 ft | 473 kts | 193° |
| 2026-05-06 01:39 | 31.38338 | -81.05274 | 38075 ft | 474 kts | 193° |
| 2026-05-06 01:39 | 31.31789 | -81.05683 | 38075 ft | 475 kts | 193° |
| 2026-05-06 01:40 | 31.25180 | -81.06095 | 38075 ft | 476 kts | 193° |
| 2026-05-06 01:40 | 31.18531 | -81.06329 | 38049 ft | 480 kts | 191° |
| 2026-05-06 01:41 | 31.11250 | -81.06424 | 38069 ft | 481 kts | 191° |
| 2026-05-06 01:41 | 31.04557 | -81.06532 | 38076 ft | 482 kts | 191° |
| 2026-05-06 01:42 | 30.97846 | -81.06667 | 38071 ft | 483 kts | 191° |
| 2026-05-06 01:42 | 30.91168 | -81.06809 | 38053 ft | 483 kts | 191° |
| 2026-05-06 01:43 | 30.84454 | -81.06949 | 38063 ft | 483 kts | 191° |
| 2026-05-06 01:43 | 30.77727 | -81.07089 | 38081 ft | 483 kts | 191° |
| 2026-05-06 01:44 | 30.70999 | -81.07228 | 38073 ft | 483 kts | 191° |
| 2026-05-06 01:44 | 30.64272 | -81.07367 | 38029 ft | 483 kts | 191° |
| 2026-05-06 01:45 | 30.57627 | -81.07611 | 38073 ft | 479 kts | 194° |
| 2026-05-06 01:45 | 30.50992 | -81.08046 | 38075 ft | 478 kts | 194° |
| 2026-05-06 01:46 | 30.44354 | -81.08485 | 38076 ft | 478 kts | 194° |
| 2026-05-06 01:46 | 30.37716 | -81.08894 | 38075 ft | 478 kts | 194° |
| 2026-05-06 01:47 | 30.31124 | -81.09285 | 38074 ft | 477 kts | 194° |
| 2026-05-06 01:47 | 30.24498 | -81.09677 | 38073 ft | 477 kts | 194° |
| 2026-05-06 01:48 | 30.17865 | -81.10069 | 38075 ft | 477 kts | 194° |
| 2026-05-06 01:48 | 30.11238 | -81.10462 | 38080 ft | 477 kts | 194° |
| 2026-05-06 01:49 | 30.04661 | -81.10851 | 38080 ft | 476 kts | 194° |
| 2026-05-06 01:49 | 29.98047 | -81.11242 | 38081 ft | 476 kts | 194° |
| 2026-05-06 01:50 | 29.91437 | -81.11632 | 38085 ft | 476 kts | 194° |
| 2026-05-06 01:50 | 29.85943 | -81.11956 | 38085 ft | 476 kts | 194° |
| 2026-05-06 01:51 | 29.78234 | -81.12330 | 38078 ft | 479 kts | 192° |
| 2026-05-06 01:51 | 29.71547 | -81.12333 | 38087 ft | 481 kts | 191° |
| 2026-05-06 01:52 | 29.65980 | -81.12331 | 38096 ft | 481 kts | 191° |
| 2026-05-06 01:52 | 29.58208 | -81.12392 | 38090 ft | 481 kts | 191° |
| 2026-05-06 01:53 | 29.51540 | -81.12566 | 38047 ft | 478 kts | 193° |
| 2026-05-06 01:53 | 29.44892 | -81.12842 | 38074 ft | 478 kts | 193° |
| 2026-05-06 01:54 | 29.38242 | -81.13096 | 38081 ft | 479 kts | 193° |
| 2026-05-06 01:54 | 29.32845 | -81.13288 | 38072 ft | 479 kts | 193° |
| 2026-05-06 01:55 | 29.28385 | -81.13078 | 38046 ft | 500 kts | 175° |
| 2026-05-06 01:55 | 29.25027 | -81.11903 | 38119 ft | 506 kts | 169° |
| 2026-05-06 01:55 | 29.18357 | -81.09252 | 38080 ft | 508 kts | 168° |
| 2026-05-06 01:56 | 29.12801 | -81.07079 | 38079 ft | 507 kts | 169° |
| 2026-05-06 01:56 | 29.06121 | -81.04555 | 38071 ft | 505 kts | 169° |
| 2026-05-06 01:57 | 28.98320 | -81.01656 | 38086 ft | 511 kts | 169° |
| 2026-05-06 01:57 | 28.91490 | -80.99119 | 38068 ft | 521 kts | 169° |
| 2026-05-06 01:58 | 28.85747 | -80.96976 | 38073 ft | 523 kts | 169° |
| 2026-05-06 01:58 | 28.78816 | -80.94392 | 38057 ft | 524 kts | 169° |
| 2026-05-06 01:59 | 28.71926 | -80.91578 | 38050 ft | 529 kts | 164° |
| 2026-05-06 01:59 | 28.65157 | -80.88259 | 38069 ft | 530 kts | 162° |
| 2026-05-06 02:00 | 28.58444 | -80.84951 | 38071 ft | 528 kts | 163° |
| 2026-05-06 02:00 | 28.51684 | -80.81719 | 38072 ft | 527 kts | 163° |
| 2026-05-06 02:01 | 28.44917 | -80.78516 | 38070 ft | 526 kts | 163° |
| 2026-05-06 02:01 | 28.38171 | -80.75317 | 38071 ft | 525 kts | 163° |
| 2026-05-06 02:02 | 28.31434 | -80.72126 | 38057 ft | 524 kts | 163° |
| 2026-05-06 02:02 | 28.24716 | -80.68948 | 38060 ft | 523 kts | 163° |
| 2026-05-06 02:03 | 28.18008 | -80.66027 | 38050 ft | 516 kts | 170° |
| 2026-05-06 02:03 | 28.11102 | -80.64001 | 38050 ft | 511 kts | 174° |
| 2026-05-06 02:04 | 28.04182 | -80.62125 | 38017 ft | 511 kts | 173° |
| 2026-05-06 02:04 | 27.97291 | -80.60126 | 38056 ft | 512 kts | 172° |
| 2026-05-06 02:05 | 27.90409 | -80.58059 | 38064 ft | 512 kts | 172° |
| 2026-05-06 02:05 | 27.83573 | -80.56006 | 38063 ft | 512 kts | 172° |
| 2026-05-06 02:06 | 27.76689 | -80.53949 | 38059 ft | 509 kts | 172° |
| 2026-05-06 02:06 | 27.73311 | -80.52937 | 38013 ft | 495 kts | 172° |
| 2026-05-06 02:06 | 27.70037 | -80.51958 | 38028 ft | 480 kts | 172° |
| 2026-05-06 02:07 | 27.63645 | -80.49980 | 38078 ft | 482 kts | 168° |
| 2026-05-06 02:07 | 27.57233 | -80.47459 | 37520 ft | 489 kts | 166° |
| 2026-05-06 02:08 | 27.54033 | -80.46130 | 36589 ft | 493 kts | 165° |
| 2026-05-06 02:08 | 27.50797 | -80.44799 | 35522 ft | 500 kts | 165° |
| 2026-05-06 02:08 | 27.47499 | -80.43464 | 34422 ft | 508 kts | 165° |
| 2026-05-06 02:08 | 27.44147 | -80.42126 | 33288 ft | 514 kts | 165° |
| 2026-05-06 02:09 | 27.40759 | -80.40784 | 32185 ft | 517 kts | 165° |
| 2026-05-06 02:09 | 27.37362 | -80.39443 | 31140 ft | 517 kts | 165° |
| 2026-05-06 02:09 | 27.34013 | -80.38121 | 30159 ft | 516 kts | 165° |
| 2026-05-06 02:09 | 27.30628 | -80.36785 | 28990 ft | 515 kts | 165° |
| 2026-05-06 02:10 | 27.27287 | -80.35465 | 28531 ft | 504 kts | 165° |
| 2026-05-06 02:10 | 27.23996 | -80.34166 | 27941 ft | 498 kts | 165° |
| 2026-05-06 02:10 | 27.20754 | -80.32889 | 27409 ft | 489 kts | 165° |
| 2026-05-06 02:10 | 27.17568 | -80.31643 | 26872 ft | 482 kts | 165° |
| 2026-05-06 02:11 | 27.14415 | -80.30418 | 26344 ft | 477 kts | 165° |
| 2026-05-06 02:11 | 27.11296 | -80.29211 | 25802 ft | 471 kts | 165° |
| 2026-05-06 02:11 | 27.08215 | -80.28018 | 25309 ft | 466 kts | 165° |
| 2026-05-06 02:11 | 27.05161 | -80.26835 | 24769 ft | 462 kts | 165° |
| 2026-05-06 02:12 | 27.02140 | -80.25666 | 24239 ft | 458 kts | 165° |
| 2026-05-06 02:12 | 26.99174 | -80.24517 | 23726 ft | 455 kts | 166° |
| 2026-05-06 02:12 | 26.96155 | -80.23348 | 23119 ft | 451 kts | 165° |
| 2026-05-06 02:12 | 26.93256 | -80.22225 | 22703 ft | 443 kts | 165° |
| 2026-05-06 02:13 | 26.90351 | -80.21101 | 22072 ft | 441 kts | 165° |
| 2026-05-06 02:13 | 26.87475 | -80.19989 | 21564 ft | 435 kts | 165° |
| 2026-05-06 02:13 | 26.84622 | -80.18897 | 21053 ft | 431 kts | 165° |
| 2026-05-06 02:13 | 26.81793 | -80.17845 | 20535 ft | 426 kts | 165° |
| 2026-05-06 02:14 | 26.78987 | -80.16814 | 20047 ft | 422 kts | 165° |
| 2026-05-06 02:14 | 26.76214 | -80.15792 | 19551 ft | 419 kts | 165° |
| 2026-05-06 02:14 | 26.73461 | -80.14775 | 19051 ft | 415 kts | 165° |
| 2026-05-06 02:14 | 26.70722 | -80.13772 | 18552 ft | 412 kts | 166° |
| 2026-05-06 02:15 | 26.68001 | -80.12967 | 18025 ft | 407 kts | 170° |
| 2026-05-06 02:15 | 26.65255 | -80.12269 | 17504 ft | 403 kts | 171° |
| 2026-05-06 02:15 | 26.62533 | -80.11571 | 16986 ft | 400 kts | 170° |
| 2026-05-06 02:15 | 26.59840 | -80.10857 | 16491 ft | 396 kts | 169° |
| 2026-05-06 02:16 | 26.57171 | -80.10170 | 16010 ft | 391 kts | 170° |
| 2026-05-06 02:16 | 26.54532 | -80.09515 | 15533 ft | 387 kts | 171° |
| 2026-05-06 02:16 | 26.51914 | -80.08869 | 15055 ft | 384 kts | 171° |
| 2026-05-06 02:16 | 26.49319 | -80.08226 | 14582 ft | 381 kts | 170° |
| 2026-05-06 02:17 | 26.46743 | -80.07584 | 14100 ft | 377 kts | 170° |
| 2026-05-06 02:17 | 26.44186 | -80.06983 | 13602 ft | 374 kts | 172° |
| 2026-05-06 02:17 | 26.41638 | -80.06449 | 13117 ft | 370 kts | 172° |
| 2026-05-06 02:17 | 26.39145 | -80.05932 | 12945 ft | 358 kts | 172° |
| 2026-05-06 02:18 | 26.36752 | -80.05326 | 12781 ft | 347 kts | 169° |
| 2026-05-06 02:18 | 26.34475 | -80.04681 | 12635 ft | 336 kts | 169° |
| 2026-05-06 02:18 | 26.32248 | -80.04047 | 12494 ft | 326 kts | 169° |
| 2026-05-06 02:18 | 26.30080 | -80.03440 | 12359 ft | 316 kts | 169° |
| 2026-05-06 02:19 | 26.27968 | -80.02859 | 12236 ft | 310 kts | 169° |
| 2026-05-06 02:19 | 26.25878 | -80.02325 | 12109 ft | 305 kts | 176° |
| 2026-05-06 02:19 | 26.23795 | -80.02472 | 12004 ft | 300 kts | 195° |
| 2026-05-06 02:19 | 26.21735 | -80.02957 | 11879 ft | 305 kts | 196° |
| 2026-05-06 02:20 | 26.17604 | -80.03943 | 11620 ft | 301 kts | 196° |
| 2026-05-06 02:20 | 26.15564 | -80.04420 | 11497 ft | 298 kts | 195° |
| 2026-05-06 02:20 | 26.13538 | -80.04888 | 11358 ft | 296 kts | 195° |
| 2026-05-06 02:21 | 26.11550 | -80.05344 | 11249 ft | 295 kts | 195° |
| 2026-05-06 02:21 | 26.09543 | -80.05803 | 11121 ft | 294 kts | 195° |
| 2026-05-06 02:21 | 26.07542 | -80.06259 | 11001 ft | 294 kts | 195° |
| 2026-05-06 02:21 | 26.05535 | -80.06743 | 10781 ft | 297 kts | 197° |
| 2026-05-06 02:22 | 26.03516 | -80.07271 | 10566 ft | 301 kts | 197° |
| 2026-05-06 02:22 | 26.01463 | -80.07813 | 10288 ft | 303 kts | 197° |
| 2026-05-06 02:22 | 25.99435 | -80.08345 | 10037 ft | 298 kts | 197° |
| 2026-05-06 02:22 | 25.97444 | -80.08862 | 9926 ft | 287 kts | 197° |
| 2026-05-06 02:23 | 25.95519 | -80.09362 | 9576 ft | 286 kts | 197° |
| 2026-05-06 02:23 | 25.93593 | -80.09864 | 9304 ft | 282 kts | 198° |
| 2026-05-06 02:23 | 25.91868 | -80.10780 | 9029 ft | 271 kts | 222° |
| 2026-05-06 02:23 | 25.90554 | -80.12195 | 8826 ft | 264 kts | 230° |
| 2026-05-06 02:24 | 25.89332 | -80.13716 | 8607 ft | 265 kts | 231° |
| 2026-05-06 02:24 | 25.88269 | -80.15374 | 8367 ft | 263 kts | 249° |
| 2026-05-06 02:24 | 25.87844 | -80.17328 | 8169 ft | 261 kts | 266° |
| 2026-05-06 02:24 | 25.87789 | -80.19340 | 7931 ft | 262 kts | 269° |
| 2026-05-06 02:25 | 25.87758 | -80.21377 | 7597 ft | 265 kts | 269° |
| 2026-05-06 02:25 | 25.87710 | -80.23419 | 7264 ft | 264 kts | 268° |
| 2026-05-06 02:25 | 25.87652 | -80.25460 | 6939 ft | 264 kts | 268° |
| 2026-05-06 02:25 | 25.87590 | -80.27501 | 6610 ft | 265 kts | 268° |
| 2026-05-06 02:26 | 25.87802 | -80.29514 | 6255 ft | 265 kts | 290° |
| 2026-05-06 02:26 | 25.88631 | -80.31340 | 5927 ft | 265 kts | 298° |
| 2026-05-06 02:26 | 25.89515 | -80.33107 | 5589 ft | 265 kts | 298° |
| 2026-05-06 02:26 | 25.90399 | -80.34899 | 5250 ft | 264 kts | 298° |
| 2026-05-06 02:27 | 25.91274 | -80.36687 | 4915 ft | 263 kts | 298° |
| 2026-05-06 02:27 | 25.92140 | -80.38462 | 4571 ft | 258 kts | 298° |
| 2026-05-06 02:27 | 25.92982 | -80.40191 | 4232 ft | 251 kts | 298° |
| 2026-05-06 02:27 | 25.93684 | -80.41927 | 4001 ft | 242 kts | 281° |
| 2026-05-06 02:28 | 25.93771 | -80.43755 | 3976 ft | 236 kts | 269° |
| 2026-05-06 02:28 | 25.93730 | -80.45557 | 3976 ft | 233 kts | 269° |
| 2026-05-06 02:28 | 25.93419 | -80.47307 | 3826 ft | 234 kts | 244° |
| 2026-05-06 02:28 | 25.92361 | -80.48627 | 3558 ft | 236 kts | 213° |
| 2026-05-06 02:29 | 25.90940 | -80.49119 | 3433 ft | 233 kts | 182° |
| 2026-05-06 02:29 | 25.89450 | -80.48618 | 3352 ft | 224 kts | 141° |
| 2026-05-06 02:29 | 25.88552 | -80.47249 | 3196 ft | 218 kts | 114° |
| 2026-05-06 02:29 | 25.87861 | -80.45778 | 3049 ft | 214 kts | 118° |
| 2026-05-06 02:30 | 25.87126 | -80.44352 | 2779 ft | 212 kts | 118° |
| 2026-05-06 02:30 | 25.86404 | -80.42940 | 2509 ft | 208 kts | 118° |
| 2026-05-06 02:30 | 25.85702 | -80.41567 | 2248 ft | 202 kts | 117° |
| 2026-05-06 02:30 | 25.85021 | -80.40230 | 1995 ft | 196 kts | 117° |
| 2026-05-06 02:31 | 25.84372 | -80.38957 | 1732 ft | 183 kts | 118° |
| 2026-05-06 02:31 | 25.83774 | -80.37784 | 1494 ft | 171 kts | 118° |
| 2026-05-06 02:31 | 25.83205 | -80.36665 | 1290 ft | 158 kts | 118° |
| 2026-05-06 02:31 | 25.82685 | -80.35647 | 1093 ft | 149 kts | 118° |
| 2026-05-06 02:32 | 25.82183 | -80.34658 | 952 ft | 145 kts | 118° |
| 2026-05-06 02:32 | 25.81672 | -80.33657 | 749 ft | 149 kts | 116° |
| 2026-05-06 02:32 | 25.81170 | -80.32664 | 524 ft | 145 kts | 117° |
| 2026-05-06 02:32 | 25.80688 | -80.31720 | 314 ft | 138 kts | 118° |
| 2026-05-06 02:33 | 25.80241 | -80.30841 | 152 ft | 125 kts | 117° |
| 2026-05-06 02:33 | 25.79959 | -80.30301 | 44 ft | 120 kts | 116° |
| 2026-05-06 02:34 | 25.79199 | -80.28727 | 13 ft | 20 kts | 89° |
| 2026-05-06 02:34 | 25.79247 | -80.28619 | 14 ft | 7 kts | 30° |
| 2026-05-06 02:34 | 25.79289 | -80.28592 | 14 ft | 7 kts | 31° |
| 2026-05-06 02:34 | 25.79337 | -80.28571 | 14 ft | 11 kts | 7° |
| 2026-05-06 02:35 | 25.79417 | -80.28576 | 14 ft | 0 kts | 358° |
| 2026-05-06 02:35 | 25.79419 | -80.28576 | 14 ft | 2 kts | 359° |
| 2026-05-06 02:35 | 25.79445 | -80.28528 | 17 ft | 9 kts | 72° |
| 2026-05-06 02:36 | 25.79460 | -80.28476 | 15 ft | 5 kts | 71° |
| 2026-05-06 02:36 | 25.79464 | -80.28465 | 15 ft | 0 kts | 71° |